^^
Your Local Weather - Clay, NY Station Historical Data
Daily Summary for January 22, 2018 Units:  Both    English   Metric
« Previous Day
Next Day »
Daily Weekly Monthly Yearly Custom
  High: Low: Average:
Temperature: 37.0 °F /  2.8 °C 34.1 °F /  1.2 °C 35.5 °F /  1.9 °C
Dew Point: 34.9 °F /  1.6 °C 31.0 °F /  -0.6 °C 33.2 °F /  0.7 °C
Humidity: 93% 87% 91%
Wind Speed: 6.0mph /  9.7km/h - 3mph /  4.8km/h
Wind Gust: 12.0mph /  19.3km/h - -
Wind- - ENE
Pressure: 30.12 in /  1019.9 hPa 29.75 in /  1007.3 hPa -
Precipitation: 0.07 in /  1.78 mm    
Historical Graphs
 
 
Tabular Data for January 22, 2018
Time Temperature Dew Point Pressure Wind Wind Speed Wind Gust Humidity Rainfall Rate (Hourly) solar
00:04 34.5 °F /  1.4 °C 31.0 °F /  -0.6 °C 30.07in /  1018.2hPa East 1.0mph /  1.6km/h 2.0mph /  3.2km/h 87% 0.00in /  0mm 0 W/m2
00:10 34.5 °F /  1.4 °C 31.0 °F /  -0.6 °C 30.08in /  1018.5hPa East 1.0mph /  1.6km/h 2.0mph /  3.2km/h 87% 0.00in /  0mm 0 W/m2
00:22 34.5 °F /  1.4 °C 31.3 °F /  -0.4 °C 30.08in /  1018.5hPa Calm   2.0mph /  3.2km/h 88% 0.00in /  0mm 0 W/m2
00:28 34.5 °F /  1.4 °C 31.3 °F /  -0.4 °C 30.08in /  1018.5hPa Calm   2.0mph /  3.2km/h 88% 0.00in /  0mm 0 W/m2
00:40 34.5 °F /  1.4 °C 31.3 °F /  -0.4 °C 30.07in /  1018.2hPa ENE 2.0mph /  3.2km/h 3.0mph /  4.8km/h 88% 0.00in /  0mm 0 W/m2
00:46 34.6 °F /  1.4 °C 31.4 °F /  -0.3 °C 30.08in /  1018.5hPa ENE 3.0mph /  4.8km/h 3.0mph /  4.8km/h 88% 0.00in /  0mm 0 W/m2
00:52 34.6 °F /  1.4 °C 31.4 °F /  -0.3 °C 30.07in /  1018.2hPa East 2.0mph /  3.2km/h 3.0mph /  4.8km/h 88% 0.00in /  0mm 0 W/m2
00:58 34.6 °F /  1.4 °C 31.4 °F /  -0.3 °C 30.08in /  1018.5hPa East 1.0mph /  1.6km/h 3.0mph /  4.8km/h 88% 0.00in /  0mm 0 W/m2
01:10 34.6 °F /  1.4 °C 31.4 °F /  -0.3 °C 30.07in /  1018.2hPa East 1.0mph /  1.6km/h 1.0mph /  1.6km/h 88% 0.00in /  0mm 0 W/m2
01:16 34.6 °F /  1.4 °C 31.7 °F /  -0.2 °C 30.07in /  1018.2hPa East 2.0mph /  3.2km/h 2.0mph /  3.2km/h 89% 0.00in /  0mm 0 W/m2
01:22 34.6 °F /  1.4 °C 31.7 °F /  -0.2 °C 30.07in /  1018.2hPa ENE 2.0mph /  3.2km/h 3.0mph /  4.8km/h 89% 0.00in /  0mm 0 W/m2
01:34 34.5 °F /  1.4 °C 31.6 °F /  -0.2 °C 30.07in /  1018.2hPa ENE 2.0mph /  3.2km/h 3.0mph /  4.8km/h 89% 0.00in /  0mm 0 W/m2
01:40 34.5 °F /  1.4 °C 31.6 °F /  -0.2 °C 30.08in /  1018.5hPa ENE 2.0mph /  3.2km/h 2.0mph /  3.2km/h 89% 0.00in /  0mm 0 W/m2
01:46 34.4 °F /  1.3 °C 31.5 °F /  -0.3 °C 30.08in /  1018.5hPa ENE 1.0mph /  1.6km/h 2.0mph /  3.2km/h 89% 0.00in /  0mm 0 W/m2
01:52 34.5 °F /  1.4 °C 31.6 °F /  -0.2 °C 30.08in /  1018.5hPa ENE 1.0mph /  1.6km/h 1.0mph /  1.6km/h 89% 0.00in /  0mm 0 W/m2
01:58 34.5 °F /  1.4 °C 31.6 °F /  -0.2 °C 30.08in /  1018.5hPa ENE 1.0mph /  1.6km/h 1.0mph /  1.6km/h 89% 0.00in /  0mm 0 W/m2
02:10 34.4 °F /  1.3 °C 31.8 °F /  -0.1 °C 30.08in /  1018.5hPa ENE 1.0mph /  1.6km/h 1.0mph /  1.6km/h 90% 0.00in /  0mm 0 W/m2
02:16 34.3 °F /  1.3 °C 31.7 °F /  -0.2 °C 30.08in /  1018.5hPa East 1.0mph /  1.6km/h 2.0mph /  3.2km/h 90% 0.00in /  0mm 0 W/m2
02:22 34.3 °F /  1.3 °C 31.7 °F /  -0.2 °C 30.08in /  1018.5hPa NE 2.0mph /  3.2km/h 2.0mph /  3.2km/h 90% 0.00in /  0mm 0 W/m2
02:28 34.4 °F /  1.3 °C 31.8 °F /  -0.1 °C 30.08in /  1018.5hPa ENE 1.0mph /  1.6km/h 4.0mph /  6.4km/h 90% 0.00in /  0mm 0 W/m2
02:34 34.4 °F /  1.3 °C 31.8 °F /  -0.1 °C 30.08in /  1018.5hPa ENE 1.0mph /  1.6km/h 3.0mph /  4.8km/h 90% 0.00in /  0mm 0 W/m2
02:40 34.3 °F /  1.3 °C 31.7 °F /  -0.2 °C 30.08in /  1018.5hPa East 2.0mph /  3.2km/h 2.0mph /  3.2km/h 90% 0.00in /  0mm 0 W/m2
02:46 34.3 °F /  1.3 °C 31.7 °F /  -0.2 °C 30.08in /  1018.5hPa East 1.0mph /  1.6km/h 2.0mph /  3.2km/h 90% 0.00in /  0mm 0 W/m2
02:52 34.3 °F /  1.3 °C 31.7 °F /  -0.2 °C 30.08in /  1018.5hPa East 1.0mph /  1.6km/h 1.0mph /  1.6km/h 90% 0.00in /  0mm 0 W/m2
02:58 34.3 °F /  1.3 °C 31.7 °F /  -0.2 °C 30.08in /  1018.5hPa East 1.0mph /  1.6km/h 2.0mph /  3.2km/h 90% 0.00in /  0mm 0 W/m2
03:04 34.2 °F /  1.2 °C 31.6 °F /  -0.2 °C 30.08in /  1018.5hPa East 1.0mph /  1.6km/h 3.0mph /  4.8km/h 90% 0.00in /  0mm 0 W/m2
03:10 34.2 °F /  1.2 °C 31.8 °F /  -0.1 °C 30.08in /  1018.5hPa East 1.0mph /  1.6km/h 1.0mph /  1.6km/h 91% 0.00in /  0mm 0 W/m2
03:16 34.2 °F /  1.2 °C 31.8 °F /  -0.1 °C 30.07in /  1018.2hPa East 1.0mph /  1.6km/h 1.0mph /  1.6km/h 91% 0.00in /  0mm 0 W/m2
03:22 34.2 °F /  1.2 °C 31.8 °F /  -0.1 °C 30.07in /  1018.2hPa Calm   3.0mph /  4.8km/h 91% 0.00in /  0mm 0 W/m2
03:28 34.1 °F /  1.2 °C 31.7 °F /  -0.2 °C 30.07in /  1018.2hPa East 1.0mph /  1.6km/h 3.0mph /  4.8km/h 91% 0.00in /  0mm 0 W/m2
03:34 34.2 °F /  1.2 °C 31.8 °F /  -0.1 °C 30.07in /  1018.2hPa ENE 1.0mph /  1.6km/h 2.0mph /  3.2km/h 91% 0.00in /  0mm 0 W/m2
03:40 34.2 °F /  1.2 °C 31.8 °F /  -0.1 °C 30.07in /  1018.2hPa ENE 1.0mph /  1.6km/h 1.0mph /  1.6km/h 91% 0.00in /  0mm 0 W/m2
03:46 34.2 °F /  1.2 °C 31.8 °F /  -0.1 °C 30.07in /  1018.2hPa ENE 1.0mph /  1.6km/h 2.0mph /  3.2km/h 91% 0.00in /  0mm 0 W/m2
03:52 34.2 °F /  1.2 °C 31.8 °F /  -0.1 °C 30.07in /  1018.2hPa ENE 1.0mph /  1.6km/h 1.0mph /  1.6km/h 91% 0.00in /  0mm 0 W/m2
03:58 34.2 °F /  1.2 °C 31.8 °F /  -0.1 °C 30.07in /  1018.2hPa ENE 1.0mph /  1.6km/h 1.0mph /  1.6km/h 91% 0.00in /  0mm 0 W/m2
04:04 34.1 °F /  1.2 °C 31.7 °F /  -0.2 °C 30.07in /  1018.2hPa Calm   1.0mph /  1.6km/h 91% 0.00in /  0mm 0 W/m2
04:10 34.1 °F /  1.2 °C 31.7 °F /  -0.2 °C 30.07in /  1018.2hPa ENE 1.0mph /  1.6km/h 1.0mph /  1.6km/h 91% 0.00in /  0mm 0 W/m2
04:16 34.2 °F /  1.2 °C 31.8 °F /  -0.1 °C 30.07in /  1018.2hPa ENE 2.0mph /  3.2km/h 3.0mph /  4.8km/h 91% 0.00in /  0mm 0 W/m2
04:22 34.2 °F /  1.2 °C 31.8 °F /  -0.1 °C 30.07in /  1018.2hPa East 1.0mph /  1.6km/h 2.0mph /  3.2km/h 91% 0.00in /  0mm 0 W/m2
04:28 34.1 °F /  1.2 °C 31.7 °F /  -0.2 °C 30.07in /  1018.2hPa East 1.0mph /  1.6km/h 2.0mph /  3.2km/h 91% 0.00in /  0mm 0 W/m2
04:34 34.1 °F /  1.2 °C 31.7 °F /  -0.2 °C 30.07in /  1018.2hPa ENE 2.0mph /  3.2km/h 2.0mph /  3.2km/h 91% 0.00in /  0mm 0 W/m2
04:40 34.1 °F /  1.2 °C 31.7 °F /  -0.2 °C 30.08in /  1018.5hPa East 2.0mph /  3.2km/h 2.0mph /  3.2km/h 91% 0.00in /  0mm 0 W/m2
04:52 34.1 °F /  1.2 °C 31.7 °F /  -0.2 °C 30.08in /  1018.5hPa ENE 2.0mph /  3.2km/h 2.0mph /  3.2km/h 91% 0.00in /  0mm 0 W/m2
04:58 34.2 °F /  1.2 °C 31.8 °F /  -0.1 °C 30.08in /  1018.5hPa ENE 2.0mph /  3.2km/h 4.0mph /  6.4km/h 91% 0.00in /  0mm 0 W/m2
05:04 34.2 °F /  1.2 °C 31.8 °F /  -0.1 °C 30.08in /  1018.5hPa ENE 2.0mph /  3.2km/h 4.0mph /  6.4km/h 91% 0.00in /  0mm 0 W/m2
05:10 34.3 °F /  1.3 °C 31.9 °F /  -0.1 °C 30.08in /  1018.5hPa East 2.0mph /  3.2km/h 2.0mph /  3.2km/h 91% 0.00in /  0mm 0 W/m2
05:16 34.3 °F /  1.3 °C 31.9 °F /  -0.1 °C 30.09in /  1018.8hPa East 2.0mph /  3.2km/h 5.0mph /  8km/h 91% 0.00in /  0mm 0 W/m2
05:22 34.3 °F /  1.3 °C 31.9 °F /  -0.1 °C 30.09in /  1018.8hPa East 3.0mph /  4.8km/h 3.0mph /  4.8km/h 91% 0.00in /  0mm 0 W/m2
05:28 34.4 °F /  1.3 °C 32.0 °F /  0 °C 30.09in /  1018.8hPa East 2.0mph /  3.2km/h 5.0mph /  8km/h 91% 0.00in /  0mm 0 W/m2
05:34 34.4 °F /  1.3 °C 32.0 °F /  0 °C 30.09in /  1018.8hPa NE 2.0mph /  3.2km/h 3.0mph /  4.8km/h 91% 0.00in /  0mm 0 W/m2
05:40 34.4 °F /  1.3 °C 32.0 °F /  0 °C 30.10in /  1019.2hPa ENE 2.0mph /  3.2km/h 3.0mph /  4.8km/h 91% 0.00in /  0mm 0 W/m2
05:46 34.3 °F /  1.3 °C 31.9 °F /  -0.1 °C 30.10in /  1019.2hPa ENE 1.0mph /  1.6km/h 3.0mph /  4.8km/h 91% 0.00in /  0mm 0 W/m2
05:52 34.3 °F /  1.3 °C 31.9 °F /  -0.1 °C 30.10in /  1019.2hPa ENE 2.0mph /  3.2km/h 2.0mph /  3.2km/h 91% 0.00in /  0mm 0 W/m2
06:04 34.4 °F /  1.3 °C 32.0 °F /  0 °C 30.10in /  1019.2hPa ENE 2.0mph /  3.2km/h 2.0mph /  3.2km/h 91% 0.00in /  0mm 0 W/m2
06:10 34.4 °F /  1.3 °C 32.0 °F /  0 °C 30.09in /  1018.8hPa ENE 2.0mph /  3.2km/h 3.0mph /  4.8km/h 91% 0.00in /  0mm 0 W/m2
06:16 34.4 °F /  1.3 °C 32.0 °F /  0 °C 30.09in /  1018.8hPa ENE 3.0mph /  4.8km/h 6.0mph /  9.7km/h 91% 0.00in /  0mm 0 W/m2
06:22 34.3 °F /  1.3 °C 31.9 °F /  -0.1 °C 30.08in /  1018.5hPa ESE 3.0mph /  4.8km/h 7.0mph /  11.3km/h 91% 0.00in /  0mm 0 W/m2
06:28 34.3 °F /  1.3 °C 31.9 °F /  -0.1 °C 30.08in /  1018.5hPa SE 3.0mph /  4.8km/h 7.0mph /  11.3km/h 91% 0.00in /  0mm 0 W/m2
06:34 34.3 °F /  1.3 °C 31.9 °F /  -0.1 °C 30.08in /  1018.5hPa ENE 2.0mph /  3.2km/h 4.0mph /  6.4km/h 91% 0.00in /  0mm 0 W/m2
06:40 34.3 °F /  1.3 °C 32.2 °F /  0.1 °C 30.08in /  1018.5hPa ESE 3.0mph /  4.8km/h 3.0mph /  4.8km/h 92% 0.00in /  0mm 0 W/m2
06:46 34.3 °F /  1.3 °C 32.2 °F /  0.1 °C 30.09in /  1018.8hPa SSE 2.0mph /  3.2km/h 3.0mph /  4.8km/h 92% 0.00in /  0mm 0 W/m2
06:52 34.2 °F /  1.2 °C 32.1 °F /  0.1 °C 30.09in /  1018.8hPa ESE 2.0mph /  3.2km/h 2.0mph /  3.2km/h 92% 0.00in /  0mm 0 W/m2
06:58 34.2 °F /  1.2 °C 32.1 °F /  0.1 °C 30.09in /  1018.8hPa ESE 1.0mph /  1.6km/h 2.0mph /  3.2km/h 92% 0.00in /  0mm 0 W/m2
07:04 34.2 °F /  1.2 °C 32.1 °F /  0.1 °C 30.10in /  1019.2hPa ESE 1.0mph /  1.6km/h 2.0mph /  3.2km/h 92% 0.00in /  0mm 0 W/m2
07:16 34.2 °F /  1.2 °C 32.1 °F /  0.1 °C 30.10in /  1019.2hPa ENE 1.0mph /  1.6km/h 3.0mph /  4.8km/h 92% 0.00in /  0mm 0 W/m2
07:22 34.2 °F /  1.2 °C 32.1 °F /  0.1 °C 30.10in /  1019.2hPa ENE 1.0mph /  1.6km/h 2.0mph /  3.2km/h 92% 0.00in /  0mm 0 W/m2
07:28 34.2 °F /  1.2 °C 32.1 °F /  0.1 °C 30.10in /  1019.2hPa NE 1.0mph /  1.6km/h 2.0mph /  3.2km/h 92% 0.00in /  0mm 0 W/m2
07:34 34.2 °F /  1.2 °C 32.1 °F /  0.1 °C 30.11in /  1019.5hPa NE 1.0mph /  1.6km/h 1.0mph /  1.6km/h 92% 0.00in /  0mm 0 W/m2
07:40 34.2 °F /  1.2 °C 32.1 °F /  0.1 °C 30.11in /  1019.5hPa NE 1.0mph /  1.6km/h 2.0mph /  3.2km/h 92% 0.00in /  0mm 0 W/m2
07:52 34.2 °F /  1.2 °C 32.1 °F /  0.1 °C 30.11in /  1019.5hPa ENE 2.0mph /  3.2km/h 3.0mph /  4.8km/h 92% 0.00in /  0mm 7 W/m2
07:58 34.3 °F /  1.3 °C 32.2 °F /  0.1 °C 30.11in /  1019.5hPa NNE 2.0mph /  3.2km/h 3.0mph /  4.8km/h 92% 0.00in /  0mm 9 W/m2
08:04 34.3 °F /  1.3 °C 32.2 °F /  0.1 °C 30.11in /  1019.5hPa ESE 3.0mph /  4.8km/h 4.0mph /  6.4km/h 92% 0.00in /  0mm 9 W/m2
08:16 34.4 °F /  1.3 °C 32.3 °F /  0.2 °C 30.11in /  1019.5hPa East 2.0mph /  3.2km/h 7.0mph /  11.3km/h 92% 0.00in /  0mm 12 W/m2
08:28 34.5 °F /  1.4 °C 32.4 °F /  0.2 °C 30.11in /  1019.5hPa ENE 3.0mph /  4.8km/h 8.0mph /  12.9km/h 92% 0.00in /  0mm 26 W/m2
08:34 34.6 °F /  1.4 °C 32.5 °F /  0.3 °C 30.11in /  1019.5hPa ENE 3.0mph /  4.8km/h 3.0mph /  4.8km/h 92% 0.00in /  0mm 32 W/m2
08:40 34.7 °F /  1.5 °C 32.6 °F /  0.3 °C 30.11in /  1019.5hPa East 3.0mph /  4.8km/h 8.0mph /  12.9km/h 92% 0.00in /  0mm 33 W/m2
08:46 34.7 °F /  1.5 °C 32.6 °F /  0.3 °C 30.10in /  1019.2hPa East 3.0mph /  4.8km/h 8.0mph /  12.9km/h 92% 0.00in /  0mm 40 W/m2
08:52 34.8 °F /  1.6 °C 32.7 °F /  0.4 °C 30.10in /  1019.2hPa East 4.0mph /  6.4km/h 5.0mph /  8km/h 92% 0.00in /  0mm 56 W/m2
08:58 34.9 °F /  1.6 °C 32.8 °F /  0.4 °C 30.11in /  1019.5hPa ENE 4.0mph /  6.4km/h 8.0mph /  12.9km/h 92% 0.00in /  0mm 53 W/m2
09:04 35.0 °F /  1.7 °C 32.9 °F /  0.5 °C 30.11in /  1019.5hPa NE 3.0mph /  4.8km/h 5.0mph /  8km/h 92% 0.00in /  0mm 54 W/m2
09:10 35.2 °F /  1.8 °C 32.8 °F /  0.4 °C 30.12in /  1019.9hPa East 3.0mph /  4.8km/h 3.0mph /  4.8km/h 91% 0.00in /  0mm 46 W/m2
09:16 35.2 °F /  1.8 °C 32.8 °F /  0.4 °C 30.12in /  1019.9hPa ENE 3.0mph /  4.8km/h 5.0mph /  8km/h 91% 0.00in /  0mm 53 W/m2
09:34 35.5 °F /  1.9 °C 33.1 °F /  0.6 °C 30.11in /  1019.5hPa South 2.0mph /  3.2km/h 3.0mph /  4.8km/h 91% 0.00in /  0mm 74 W/m2
09:40 35.6 °F /  2 °C 33.2 °F /  0.7 °C 30.11in /  1019.5hPa East 2.0mph /  3.2km/h 2.0mph /  3.2km/h 91% 0.00in /  0mm 67 W/m2
09:52 35.8 °F /  2.1 °C 33.2 °F /  0.7 °C 30.10in /  1019.2hPa East 2.0mph /  3.2km/h 3.0mph /  4.8km/h 90% 0.00in /  0mm 95 W/m2
09:58 36.0 °F /  2.2 °C 33.4 °F /  0.8 °C 30.10in /  1019.2hPa East 2.0mph /  3.2km/h 8.0mph /  12.9km/h 90% 0.00in /  0mm 100 W/m2
10:04 36.1 °F /  2.3 °C 33.5 °F /  0.8 °C 30.11in /  1019.5hPa East 3.0mph /  4.8km/h 3.0mph /  4.8km/h 90% 0.00in /  0mm 67 W/m2
10:10 36.1 °F /  2.3 °C 33.5 °F /  0.8 °C 30.11in /  1019.5hPa East 2.0mph /  3.2km/h 2.0mph /  3.2km/h 90% 0.00in /  0mm 49 W/m2
10:16 36.1 °F /  2.3 °C 33.2 °F /  0.7 °C 30.11in /  1019.5hPa East 2.0mph /  3.2km/h 7.0mph /  11.3km/h 89% 0.00in /  0mm 42 W/m2
10:22 36.0 °F /  2.2 °C 33.1 °F /  0.6 °C 30.10in /  1019.2hPa ESE 4.0mph /  6.4km/h 4.0mph /  6.4km/h 89% 0.00in /  0mm 46 W/m2
10:28 36.0 °F /  2.2 °C 33.1 °F /  0.6 °C 30.10in /  1019.2hPa East 3.0mph /  4.8km/h 5.0mph /  8km/h 89% 0.00in /  0mm 53 W/m2
10:34 36.1 °F /  2.3 °C 33.2 °F /  0.7 °C 30.10in /  1019.2hPa ESE 4.0mph /  6.4km/h 4.0mph /  6.4km/h 89% 0.00in /  0mm 46 W/m2
10:40 36.2 °F /  2.3 °C 33.3 °F /  0.7 °C 30.09in /  1018.8hPa East 3.0mph /  4.8km/h 5.0mph /  8km/h 89% 0.00in /  0mm 49 W/m2
10:46 36.2 °F /  2.3 °C 33.0 °F /  0.6 °C 30.10in /  1019.2hPa ESE 3.0mph /  4.8km/h 6.0mph /  9.7km/h 88% 0.00in /  0mm 49 W/m2
10:52 36.3 °F /  2.4 °C 33.1 °F /  0.6 °C 30.10in /  1019.2hPa ENE 3.0mph /  4.8km/h 5.0mph /  8km/h 88% 0.00in /  0mm 46 W/m2
10:58 36.4 °F /  2.4 °C 33.2 °F /  0.7 °C 30.09in /  1018.8hPa East 4.0mph /  6.4km/h 8.0mph /  12.9km/h 88% 0.00in /  0mm 49 W/m2
11:06 36.3 °F /  2.4 °C 33.1 °F /  0.6 °C 30.08in /  1018.5hPa ENE 3.0mph /  4.8km/h 8.0mph /  12.9km/h 88% 0.00in /  0mm 60 W/m2
11:12 36.4 °F /  2.4 °C 33.2 °F /  0.7 °C 30.08in /  1018.5hPa ENE 3.0mph /  4.8km/h 4.0mph /  6.4km/h 88% 0.00in /  0mm 65 W/m2
11:18 36.4 °F /  2.4 °C 32.9 °F /  0.5 °C 30.07in /  1018.2hPa NE 5.0mph /  8km/h 7.0mph /  11.3km/h 87% 0.00in /  0mm 70 W/m2
11:26 36.4 °F /  2.4 °C 32.9 °F /  0.5 °C 30.07in /  1018.2hPa East 4.0mph /  6.4km/h 5.0mph /  8km/h 87% 0.00in /  0mm 69 W/m2
11:32 36.4 °F /  2.4 °C 33.2 °F /  0.7 °C 30.06in /  1017.8hPa ESE 4.0mph /  6.4km/h 8.0mph /  12.9km/h 88% 0.00in /  0mm 84 W/m2
11:38 36.6 °F /  2.6 °C 33.4 °F /  0.8 °C 30.06in /  1017.8hPa ENE 5.0mph /  8km/h 8.0mph /  12.9km/h 88% 0.00in /  0mm 72 W/m2
11:44 36.7 °F /  2.6 °C 33.2 °F /  0.7 °C 30.06in /  1017.8hPa ENE 4.0mph /  6.4km/h 5.0mph /  8km/h 87% 0.00in /  0mm 62 W/m2
11:50 36.7 °F /  2.6 °C 33.2 °F /  0.7 °C 30.05in /  1017.5hPa ENE 4.0mph /  6.4km/h 8.0mph /  12.9km/h 87% 0.00in /  0mm 58 W/m2
11:56 36.8 °F /  2.7 °C 33.3 °F /  0.7 °C 30.05in /  1017.5hPa ENE 5.0mph /  8km/h 8.0mph /  12.9km/h 87% 0.00in /  0mm 54 W/m2
12:02 36.8 °F /  2.7 °C 33.3 °F /  0.7 °C 30.05in /  1017.5hPa SE 4.0mph /  6.4km/h 4.0mph /  6.4km/h 87% 0.00in /  0mm 28 W/m2
12:08 36.8 °F /  2.7 °C 33.3 °F /  0.7 °C 30.04in /  1017.2hPa ENE 4.0mph /  6.4km/h 5.0mph /  8km/h 87% 0.00in /  0mm 35 W/m2
12:14 36.8 °F /  2.7 °C 33.3 °F /  0.7 °C 30.03in /  1016.8hPa East 4.0mph /  6.4km/h 4.0mph /  6.4km/h 87% 0.00in /  0mm 47 W/m2
12:20 36.9 °F /  2.7 °C 33.4 °F /  0.8 °C 30.02in /  1016.5hPa East 4.0mph /  6.4km/h 4.0mph /  6.4km/h 87% 0.00in /  0mm 65 W/m2
12:26 37.0 °F /  2.8 °C 33.5 °F /  0.8 °C 30.02in /  1016.5hPa East 4.0mph /  6.4km/h 4.0mph /  6.4km/h 87% 0.00in /  0mm 56 W/m2
12:32 36.9 °F /  2.7 °C 33.4 °F /  0.8 °C 30.02in /  1016.5hPa ENE 3.0mph /  4.8km/h 5.0mph /  8km/h 87% 0.00in /  0mm 42 W/m2
12:38 36.8 °F /  2.7 °C 33.3 °F /  0.7 °C 30.01in /  1016.1hPa NE 4.0mph /  6.4km/h 8.0mph /  12.9km/h 87% 0.00in /  0mm 51 W/m2
12:44 36.7 °F /  2.6 °C 33.5 °F /  0.8 °C 30.01in /  1016.1hPa East 4.0mph /  6.4km/h 7.0mph /  11.3km/h 88% 0.00in /  0mm 42 W/m2
12:50 36.7 °F /  2.6 °C 33.5 °F /  0.8 °C 30.00in /  1015.8hPa ENE 4.0mph /  6.4km/h 8.0mph /  12.9km/h 88% 0.00in /  0mm 42 W/m2
12:56 36.7 °F /  2.6 °C 33.5 °F /  0.8 °C 30.00in /  1015.8hPa ENE 4.0mph /  6.4km/h 8.0mph /  12.9km/h 88% 0.00in /  0mm 33 W/m2
13:02 36.7 °F /  2.6 °C 33.5 °F /  0.8 °C 30.00in /  1015.8hPa ENE 4.0mph /  6.4km/h 10.0mph /  16.1km/h 88% 0.00in /  0mm 30 W/m2
13:08 36.7 °F /  2.6 °C 33.5 °F /  0.8 °C 30.00in /  1015.8hPa East 5.0mph /  8km/h 10.0mph /  16.1km/h 88% 0.00in /  0mm 33 W/m2
13:14 36.7 °F /  2.6 °C 33.5 °F /  0.8 °C 29.99in /  1015.5hPa ENE 5.0mph /  8km/h 8.0mph /  12.9km/h 88% 0.00in /  0mm 28 W/m2
13:20 36.6 °F /  2.6 °C 33.4 °F /  0.8 °C 29.99in /  1015.5hPa ENE 5.0mph /  8km/h 5.0mph /  8km/h 88% 0.00in /  0mm 25 W/m2
13:26 36.5 °F /  2.5 °C 33.6 °F /  0.9 °C 29.98in /  1015.1hPa ENE 5.0mph /  8km/h 5.0mph /  8km/h 89% 0.00in /  0mm 33 W/m2
13:32 36.5 °F /  2.5 °C 33.6 °F /  0.9 °C 29.98in /  1015.1hPa East 5.0mph /  8km/h 6.0mph /  9.7km/h 89% 0.00in /  0mm 25 W/m2
13:38 36.3 °F /  2.4 °C 33.6 °F /  0.9 °C 29.97in /  1014.8hPa ENE 5.0mph /  8km/h 7.0mph /  11.3km/h 90% 0.00in /  0mm 60 W/m2
13:44 36.3 °F /  2.4 °C 33.6 °F /  0.9 °C 29.97in /  1014.8hPa East 5.0mph /  8km/h 7.0mph /  11.3km/h 90% 0.00in /  0mm 42 W/m2
13:50 36.3 °F /  2.4 °C 33.6 °F /  0.9 °C 29.96in /  1014.4hPa ENE 5.0mph /  8km/h 9.0mph /  14.5km/h 90% 0.00in /  0mm 42 W/m2
13:56 36.3 °F /  2.4 °C 33.6 °F /  0.9 °C 29.96in /  1014.4hPa ENE 5.0mph /  8km/h 9.0mph /  14.5km/h 90% 0.06in /  1.52mm 54 W/m2
14:02 36.2 °F /  2.3 °C 33.8 °F /  1 °C 29.96in /  1014.4hPa NE 5.0mph /  8km/h 5.0mph /  8km/h 91% 0.06in /  1.52mm 33 W/m2
14:08 36.2 °F /  2.3 °C 33.8 °F /  1 °C 29.96in /  1014.4hPa SE 5.0mph /  8km/h 7.0mph /  11.3km/h 91% 0.04in /  1.02mm 32 W/m2
14:14 36.2 °F /  2.3 °C 33.8 °F /  1 °C 29.96in /  1014.4hPa ENE 5.0mph /  8km/h 5.0mph /  8km/h 91% 0.00in /  0mm 30 W/m2
14:20 36.1 °F /  2.3 °C 33.7 °F /  0.9 °C 29.96in /  1014.4hPa ENE 4.0mph /  6.4km/h 4.0mph /  6.4km/h 91% 0.00in /  0mm 19 W/m2
14:26 36.1 °F /  2.3 °C 33.7 °F /  0.9 °C 29.96in /  1014.4hPa East 3.0mph /  4.8km/h 4.0mph /  6.4km/h 91% 0.00in /  0mm 18 W/m2
14:32 36.0 °F /  2.2 °C 33.6 °F /  0.9 °C 29.96in /  1014.4hPa East 3.0mph /  4.8km/h 3.0mph /  4.8km/h 91% 0.00in /  0mm 16 W/m2
14:38 35.9 °F /  2.2 °C 33.5 °F /  0.8 °C 29.95in /  1014.1hPa East 3.0mph /  4.8km/h 3.0mph /  4.8km/h 91% 0.00in /  0mm 49 W/m2
14:44 35.9 °F /  2.2 °C 33.5 °F /  0.8 °C 29.94in /  1013.8hPa ENE 5.0mph /  8km/h 7.0mph /  11.3km/h 91% 0.00in /  0mm 54 W/m2
14:50 35.8 °F /  2.1 °C 33.7 °F /  0.9 °C 29.93in /  1013.4hPa East 6.0mph /  9.7km/h 10.0mph /  16.1km/h 92% 0.00in /  0mm 39 W/m2
14:56 35.9 °F /  2.2 °C 33.8 °F /  1 °C 29.94in /  1013.8hPa ESE 5.0mph /  8km/h 10.0mph /  16.1km/h 92% 0.05in /  1.27mm 79 W/m2
15:02 35.9 °F /  2.2 °C 33.8 °F /  1 °C 29.94in /  1013.8hPa East 5.0mph /  8km/h 5.0mph /  8km/h 92% 0.05in /  1.27mm 60 W/m2
15:08 36.0 °F /  2.2 °C 33.9 °F /  1.1 °C 29.94in /  1013.8hPa NE 4.0mph /  6.4km/h 5.0mph /  8km/h 92% 0.04in /  1.02mm 65 W/m2
15:14 36.0 °F /  2.2 °C 33.9 °F /  1.1 °C 29.93in /  1013.4hPa East 4.0mph /  6.4km/h 7.0mph /  11.3km/h 92% 0.04in /  1.02mm 54 W/m2
15:20 36.0 °F /  2.2 °C 33.9 °F /  1.1 °C 29.94in /  1013.8hPa East 4.0mph /  6.4km/h 4.0mph /  6.4km/h 92% 0.04in /  1.02mm 32 W/m2
15:26 36.0 °F /  2.2 °C 33.9 °F /  1.1 °C 29.94in /  1013.8hPa East 3.0mph /  4.8km/h 8.0mph /  12.9km/h 92% 0.04in /  1.02mm 23 W/m2
15:32 35.9 °F /  2.2 °C 33.8 °F /  1 °C 29.93in /  1013.4hPa ESE 3.0mph /  4.8km/h 3.0mph /  4.8km/h 92% 0.00in /  0mm 28 W/m2
15:38 35.9 °F /  2.2 °C 33.8 °F /  1 °C 29.93in /  1013.4hPa ESE 3.0mph /  4.8km/h 5.0mph /  8km/h 92% 0.00in /  0mm 49 W/m2
15:44 36.0 °F /  2.2 °C 33.9 °F /  1.1 °C 29.94in /  1013.8hPa ENE 4.0mph /  6.4km/h 5.0mph /  8km/h 92% 0.00in /  0mm 47 W/m2
15:50 36.1 °F /  2.3 °C 34.0 °F /  1.1 °C 29.94in /  1013.8hPa ESE 3.0mph /  4.8km/h 5.0mph /  8km/h 92% 0.00in /  0mm 32 W/m2
15:56 36.1 °F /  2.3 °C 34.0 °F /  1.1 °C 29.94in /  1013.8hPa ENE 3.0mph /  4.8km/h 5.0mph /  8km/h 92% 0.00in /  0mm 21 W/m2
16:02 36.1 °F /  2.3 °C 34.0 °F /  1.1 °C 29.93in /  1013.4hPa East 4.0mph /  6.4km/h 8.0mph /  12.9km/h 92% 0.00in /  0mm 28 W/m2
16:08 36.0 °F /  2.2 °C 34.2 °F /  1.2 °C 29.93in /  1013.4hPa East 4.0mph /  6.4km/h 8.0mph /  12.9km/h 93% 0.00in /  0mm 23 W/m2
16:14 35.9 °F /  2.2 °C 34.1 °F /  1.2 °C 29.93in /  1013.4hPa East 4.0mph /  6.4km/h 7.0mph /  11.3km/h 93% 0.00in /  0mm 26 W/m2
16:20 35.9 °F /  2.2 °C 34.1 °F /  1.2 °C 29.93in /  1013.4hPa ESE 5.0mph /  8km/h 5.0mph /  8km/h 93% 0.00in /  0mm 18 W/m2
16:26 35.9 °F /  2.2 °C 34.1 °F /  1.2 °C 29.93in /  1013.4hPa East 5.0mph /  8km/h 12.0mph /  19.3km/h 93% 0.00in /  0mm 12 W/m2
16:32 35.8 °F /  2.1 °C 34.0 °F /  1.1 °C 29.93in /  1013.4hPa ENE 5.0mph /  8km/h 7.0mph /  11.3km/h 93% 0.00in /  0mm 18 W/m2
16:38 35.9 °F /  2.2 °C 34.1 °F /  1.2 °C 29.92in /  1013.1hPa ENE 4.0mph /  6.4km/h 7.0mph /  11.3km/h 93% 0.00in /  0mm 16 W/m2
16:44 35.8 °F /  2.1 °C 34.0 °F /  1.1 °C 29.91in /  1012.8hPa East 4.0mph /  6.4km/h 4.0mph /  6.4km/h 93% 0.00in /  0mm 12 W/m2
16:50 35.8 °F /  2.1 °C 34.0 °F /  1.1 °C 29.91in /  1012.8hPa ENE 5.0mph /  8km/h 5.0mph /  8km/h 93% 0.00in /  0mm 5 W/m2
16:56 35.7 °F /  2.1 °C 33.9 °F /  1.1 °C 29.91in /  1012.8hPa East 5.0mph /  8km/h 5.0mph /  8km/h 93% 0.00in /  0mm 0 W/m2
17:02 35.6 °F /  2 °C 33.8 °F /  1 °C 29.91in /  1012.8hPa ENE 4.0mph /  6.4km/h 7.0mph /  11.3km/h 93% 0.00in /  0mm 0 W/m2
17:08 35.7 °F /  2.1 °C 33.9 °F /  1.1 °C 29.91in /  1012.8hPa ENE 3.0mph /  4.8km/h 7.0mph /  11.3km/h 93% 0.00in /  0mm 0 W/m2
17:14 35.7 °F /  2.1 °C 33.9 °F /  1.1 °C 29.91in /  1012.8hPa NE 3.0mph /  4.8km/h 5.0mph /  8km/h 93% 0.00in /  0mm 0 W/m2
17:20 35.7 °F /  2.1 °C 33.9 °F /  1.1 °C 29.92in /  1013.1hPa NE 2.0mph /  3.2km/h 3.0mph /  4.8km/h 93% 0.00in /  0mm 0 W/m2
17:26 35.7 °F /  2.1 °C 33.9 °F /  1.1 °C 29.91in /  1012.8hPa NE 2.0mph /  3.2km/h 3.0mph /  4.8km/h 93% 0.00in /  0mm 0 W/m2
17:32 35.7 °F /  2.1 °C 33.9 °F /  1.1 °C 29.91in /  1012.8hPa ENE 3.0mph /  4.8km/h 4.0mph /  6.4km/h 93% 0.00in /  0mm 0 W/m2
17:38 35.8 °F /  2.1 °C 34.0 °F /  1.1 °C 29.91in /  1012.8hPa NE 4.0mph /  6.4km/h 4.0mph /  6.4km/h 93% 0.00in /  0mm 0 W/m2
17:44 35.8 °F /  2.1 °C 34.0 °F /  1.1 °C 29.91in /  1012.8hPa NE 4.0mph /  6.4km/h 4.0mph /  6.4km/h 93% 0.00in /  0mm 0 W/m2
17:50 35.7 °F /  2.1 °C 33.9 °F /  1.1 °C 29.90in /  1012.4hPa East 3.0mph /  4.8km/h 5.0mph /  8km/h 93% 0.00in /  0mm 0 W/m2
17:56 35.8 °F /  2.1 °C 34.0 °F /  1.1 °C 29.90in /  1012.4hPa ENE 4.0mph /  6.4km/h 10.0mph /  16.1km/h 93% 0.00in /  0mm 0 W/m2
18:02 35.7 °F /  2.1 °C 33.9 °F /  1.1 °C 29.90in /  1012.4hPa ENE 4.0mph /  6.4km/h 5.0mph /  8km/h 93% 0.00in /  0mm 0 W/m2
18:08 35.7 °F /  2.1 °C 33.9 °F /  1.1 °C 29.90in /  1012.4hPa ENE 4.0mph /  6.4km/h 5.0mph /  8km/h 93% 0.00in /  0mm 0 W/m2
18:14 35.7 °F /  2.1 °C 33.9 °F /  1.1 °C 29.90in /  1012.4hPa East 5.0mph /  8km/h 5.0mph /  8km/h 93% 0.00in /  0mm 0 W/m2
18:20 35.7 °F /  2.1 °C 33.9 °F /  1.1 °C 29.90in /  1012.4hPa East 5.0mph /  8km/h 7.0mph /  11.3km/h 93% 0.00in /  0mm 0 W/m2
18:32 35.7 °F /  2.1 °C 33.9 °F /  1.1 °C 29.90in /  1012.4hPa ENE 5.0mph /  8km/h 8.0mph /  12.9km/h 93% 0.00in /  0mm 0 W/m2
18:38 35.7 °F /  2.1 °C 33.9 °F /  1.1 °C 29.90in /  1012.4hPa East 4.0mph /  6.4km/h 8.0mph /  12.9km/h 93% 0.00in /  0mm 0 W/m2
18:44 35.8 °F /  2.1 °C 34.0 °F /  1.1 °C 29.89in /  1012.1hPa ESE 5.0mph /  8km/h 7.0mph /  11.3km/h 93% 0.00in /  0mm 0 W/m2
18:50 35.9 °F /  2.2 °C 34.1 °F /  1.2 °C 29.89in /  1012.1hPa ENE 5.0mph /  8km/h 5.0mph /  8km/h 93% 0.00in /  0mm 0 W/m2
18:56 36.0 °F /  2.2 °C 34.2 °F /  1.2 °C 29.89in /  1012.1hPa East 4.0mph /  6.4km/h 5.0mph /  8km/h 93% 0.00in /  0mm 0 W/m2
19:03 36.0 °F /  2.2 °C 34.2 °F /  1.2 °C 29.88in /  1011.7hPa ENE 4.0mph /  6.4km/h 8.0mph /  12.9km/h 93% 0.00in /  0mm 0 W/m2
19:08 36.0 °F /  2.2 °C 34.2 °F /  1.2 °C 29.88in /  1011.7hPa East 5.0mph /  8km/h 8.0mph /  12.9km/h 93% 0.00in /  0mm 0 W/m2
19:14 36.1 °F /  2.3 °C 34.3 °F /  1.3 °C 29.88in /  1011.7hPa ENE 5.0mph /  8km/h 8.0mph /  12.9km/h 93% 0.00in /  0mm 0 W/m2
19:20 36.0 °F /  2.2 °C 34.2 °F /  1.2 °C 29.88in /  1011.7hPa East 4.0mph /  6.4km/h 4.0mph /  6.4km/h 93% 0.00in /  0mm 0 W/m2
19:26 36.1 °F /  2.3 °C 34.3 °F /  1.3 °C 29.87in /  1011.4hPa ENE 4.0mph /  6.4km/h 7.0mph /  11.3km/h 93% 0.00in /  0mm 0 W/m2
19:32 36.2 °F /  2.3 °C 34.4 °F /  1.3 °C 29.87in /  1011.4hPa ENE 4.0mph /  6.4km/h 5.0mph /  8km/h 93% 0.00in /  0mm 0 W/m2
19:44 36.4 °F /  2.4 °C 34.6 °F /  1.4 °C 29.87in /  1011.4hPa ENE 4.0mph /  6.4km/h 6.0mph /  9.7km/h 93% 0.00in /  0mm 0 W/m2
19:50 36.4 °F /  2.4 °C 34.6 °F /  1.4 °C 29.86in /  1011.1hPa ENE 5.0mph /  8km/h 7.0mph /  11.3km/h 93% 0.00in /  0mm 0 W/m2
19:56 36.5 °F /  2.5 °C 34.7 °F /  1.5 °C 29.87in /  1011.4hPa ENE 4.0mph /  6.4km/h 8.0mph /  12.9km/h 93% 0.00in /  0mm 0 W/m2
20:02 36.6 °F /  2.6 °C 34.8 °F /  1.6 °C 29.87in /  1011.4hPa East 4.0mph /  6.4km/h 6.0mph /  9.7km/h 93% 0.00in /  0mm 0 W/m2
20:08 36.5 °F /  2.5 °C 34.7 °F /  1.5 °C 29.87in /  1011.4hPa ENE 3.0mph /  4.8km/h 6.0mph /  9.7km/h 93% 0.00in /  0mm 0 W/m2
20:14 36.7 °F /  2.6 °C 34.9 °F /  1.6 °C 29.86in /  1011.1hPa ENE 4.0mph /  6.4km/h 7.0mph /  11.3km/h 93% 0.00in /  0mm 0 W/m2
20:20 36.6 °F /  2.6 °C 34.8 °F /  1.6 °C 29.86in /  1011.1hPa East 5.0mph /  8km/h 5.0mph /  8km/h 93% 0.00in /  0mm 0 W/m2
20:26 36.6 °F /  2.6 °C 34.8 °F /  1.6 °C 29.86in /  1011.1hPa ENE 5.0mph /  8km/h 8.0mph /  12.9km/h 93% 0.00in /  0mm 0 W/m2
20:32 36.6 °F /  2.6 °C 34.8 °F /  1.6 °C 29.86in /  1011.1hPa East 5.0mph /  8km/h 5.0mph /  8km/h 93% 0.00in /  0mm 0 W/m2
20:38 36.6 °F /  2.6 °C 34.8 °F /  1.6 °C 29.86in /  1011.1hPa ENE 4.0mph /  6.4km/h 7.0mph /  11.3km/h 93% 0.00in /  0mm 0 W/m2
20:50 36.5 °F /  2.5 °C 34.7 °F /  1.5 °C 29.85in /  1010.7hPa ENE 2.0mph /  3.2km/h 5.0mph /  8km/h 93% 0.00in /  0mm 0 W/m2
20:56 36.5 °F /  2.5 °C 34.7 °F /  1.5 °C 29.85in /  1010.7hPa ENE 3.0mph /  4.8km/h 8.0mph /  12.9km/h 93% 0.00in /  0mm 0 W/m2
21:02 36.6 °F /  2.6 °C 34.8 °F /  1.6 °C 29.85in /  1010.7hPa ENE 3.0mph /  4.8km/h 4.0mph /  6.4km/h 93% 0.00in /  0mm 0 W/m2
21:14 36.1 °F /  2.3 °C 34.3 °F /  1.3 °C 29.84in /  1010.4hPa ENE 3.0mph /  4.8km/h 4.0mph /  6.4km/h 93% 0.00in /  0mm 0 W/m2
21:26 36.6 °F /  2.6 °C 34.8 °F /  1.6 °C 29.85in /  1010.7hPa ENE 2.0mph /  3.2km/h 5.0mph /  8km/h 93% 0.00in /  0mm 0 W/m2
21:38 36.6 °F /  2.6 °C 34.8 °F /  1.6 °C 29.84in /  1010.4hPa ENE 4.0mph /  6.4km/h 5.0mph /  8km/h 93% 0.00in /  0mm 0 W/m2
21:44 36.4 °F /  2.4 °C 34.6 °F /  1.4 °C 29.84in /  1010.4hPa ESE 4.0mph /  6.4km/h 5.0mph /  8km/h 93% 0.00in /  0mm 0 W/m2
21:50 36.5 °F /  2.5 °C 34.7 °F /  1.5 °C 29.83in /  1010hPa East 4.0mph /  6.4km/h 4.0mph /  6.4km/h 93% 0.00in /  0mm 0 W/m2
21:56 36.4 °F /  2.4 °C 34.6 °F /  1.4 °C 29.83in /  1010hPa ENE 3.0mph /  4.8km/h 6.0mph /  9.7km/h 93% 0.00in /  0mm 0 W/m2
22:02 36.3 °F /  2.4 °C 34.5 °F /  1.4 °C 29.83in /  1010hPa NE 3.0mph /  4.8km/h 3.0mph /  4.8km/h 93% 0.00in /  0mm 0 W/m2
22:20 36.5 °F /  2.5 °C 34.7 °F /  1.5 °C 29.82in /  1009.7hPa NE 4.0mph /  6.4km/h 6.0mph /  9.7km/h 93% 0.00in /  0mm 0 W/m2
22:26 36.6 °F /  2.6 °C 34.8 °F /  1.6 °C 29.82in /  1009.7hPa ENE 4.0mph /  6.4km/h 6.0mph /  9.7km/h 93% 0.00in /  0mm 0 W/m2
22:32 36.7 °F /  2.6 °C 34.9 °F /  1.6 °C 29.82in /  1009.7hPa East 3.0mph /  4.8km/h 5.0mph /  8km/h 93% 0.00in /  0mm 0 W/m2
22:38 36.7 °F /  2.6 °C 34.9 °F /  1.6 °C 29.82in /  1009.7hPa ENE 3.0mph /  4.8km/h 5.0mph /  8km/h 93% 0.00in /  0mm 0 W/m2
22:44 36.7 °F /  2.6 °C 34.9 °F /  1.6 °C 29.82in /  1009.7hPa ENE 3.0mph /  4.8km/h 5.0mph /  8km/h 93% 0.00in /  0mm 0 W/m2
22:50 36.6 °F /  2.6 °C 34.8 °F /  1.6 °C 29.82in /  1009.7hPa NE 3.0mph /  4.8km/h 4.0mph /  6.4km/h 93% 0.00in /  0mm 0 W/m2
22:56 36.6 °F /  2.6 °C 34.8 °F /  1.6 °C 29.80in /  1009hPa East 4.0mph /  6.4km/h 7.0mph /  11.3km/h 93% 0.00in /  0mm 0 W/m2
23:02 36.5 °F /  2.5 °C 34.7 °F /  1.5 °C 29.80in /  1009hPa NE 4.0mph /  6.4km/h 5.0mph /  8km/h 93% 0.00in /  0mm 0 W/m2
23:08 36.8 °F /  2.7 °C 34.7 °F /  1.5 °C 29.80in /  1009hPa East 3.0mph /  4.8km/h 6.0mph /  9.7km/h 92% 0.00in /  0mm 0 W/m2
23:14 36.6 °F /  2.6 °C 34.5 °F /  1.4 °C 29.79in /  1008.7hPa ENE 3.0mph /  4.8km/h 4.0mph /  6.4km/h 92% 0.00in /  0mm 0 W/m2
23:20 36.6 °F /  2.6 °C 34.5 °F /  1.4 °C 29.79in /  1008.7hPa ENE 3.0mph /  4.8km/h 3.0mph /  4.8km/h 92% 0.00in /  0mm 0 W/m2
23:26 36.6 °F /  2.6 °C 34.5 °F /  1.4 °C 29.78in /  1008.4hPa ENE 4.0mph /  6.4km/h 4.0mph /  6.4km/h 92% 0.00in /  0mm 0 W/m2
23:32 36.6 °F /  2.6 °C 34.5 °F /  1.4 °C 29.78in /  1008.4hPa East 3.0mph /  4.8km/h 6.0mph /  9.7km/h 92% 0.00in /  0mm 0 W/m2
23:38 36.6 °F /  2.6 °C 34.5 °F /  1.4 °C 29.77in /  1008hPa NE 2.0mph /  3.2km/h 6.0mph /  9.7km/h 92% 0.00in /  0mm 0 W/m2
23:44 36.7 °F /  2.6 °C 34.6 °F /  1.4 °C 29.77in /  1008hPa NE 2.0mph /  3.2km/h 2.0mph /  3.2km/h 92% 0.00in /  0mm 0 W/m2
23:50 36.5 °F /  2.5 °C 34.4 °F /  1.3 °C 29.76in /  1007.7hPa ENE 1.0mph /  1.6km/h 2.0mph /  3.2km/h 92% 0.00in /  0mm 0 W/m2
23:56 36.6 °F /  2.6 °C 34.5 °F /  1.4 °C 29.75in /  1007.3hPa NE 1.0mph /  1.6km/h 2.0mph /  3.2km/h 92% 0.00in /  0mm 0 W/m2
Country Meadow, Clay, NY, USA
Compliments of Weather Underground - 2 mb